Time;durP1;ratioP1;P1;durP2;ratioP2;P2;SDS_P1;SDS_P2;PMS_P1;PMS_P2;Temp;Humidity;BMP_temperature;BMP_pressure;BME280_temperature;BME280_humidity;BME280_pressure;Samples;Min_cycle;Max_cycle;Signal;HPM_P1;HPM_P2
2022/07/31 00:01:19;;;;;;;;;;;22.30;63.40;;;;;;5031674;28;19968;-72
2022/07/31 00:03:45;;;;;;;;;;;22.30;63.40;;;;;;5036429;28;19924;-72
2022/07/31 00:06:10;;;;;;;;;;;22.30;63.50;;;;;;5035887;28;19913;-72
2022/07/31 00:08:36;;;;;;;;;;;22.20;63.40;;;;;;5030678;28;20009;-73
2022/07/31 00:11:01;;;;;;;;;;;22.30;63.50;;;;;;5032948;28;20471;-72
2022/07/31 00:13:27;;;;;;;;;;;22.20;63.40;;;;;;5034865;28;19966;-72
2022/07/31 00:15:53;;;;;;;;;;;22.20;63.60;;;;;;5038560;28;19913;-72
2022/07/31 00:18:18;;;;;;;;;;;22.20;63.50;;;;;;5030509;28;19978;-72
2022/07/31 00:20:44;;;;;;;;;;;22.20;63.60;;;;;;5042061;28;19920;-72
2022/07/31 00:23:09;;;;;;;;;;;22.10;63.50;;;;;;5039198;28;20380;-72
2022/07/31 00:25:35;;;;;;;;;;;22.10;63.70;;;;;;5027486;28;20342;-72
2022/07/31 00:28:01;;;;;;;;;;;22.10;63.70;;;;;;5034234;28;20394;-72
2022/07/31 00:30:26;;;;;;;;;;;22.10;63.70;;;;;;5031009;28;19920;-72
2022/07/31 00:32:52;;;;;;;;;;;22.00;63.80;;;;;;5028240;28;20429;-72
2022/07/31 00:35:17;;;;;;;;;;;22.10;63.70;;;;;;5030698;28;19921;-72
2022/07/31 00:37:43;;;;;;;;;;;22.00;63.80;;;;;;5048032;28;19924;-72
2022/07/31 00:40:10;;;;;;;;;;;22.00;63.90;;;;;;5038428;28;19913;-72
2022/07/31 00:42:36;;;;;;;;;;;22.00;63.80;;;;;;5039963;28;19986;-72
2022/07/31 00:45:02;;;;;;;;;;;22.00;63.90;;;;;;5036724;28;20265;-72
2022/07/31 00:47:29;;;;;;;;;;;22.00;64.10;;;;;;5025437;28;20209;-72
2022/07/31 00:49:54;;;;;;;;;;;21.90;64.00;;;;;;5029981;28;19966;-72
2022/07/31 00:52:20;;;;;;;;;;;21.90;64.00;;;;;;5032372;28;19978;-72
2022/07/31 00:54:46;;;;;;;;;;;21.90;64.00;;;;;;5041096;28;19965;-72
2022/07/31 00:57:11;;;;;;;;;;;21.90;64.20;;;;;;5023795;28;19948;-72
2022/07/31 00:59:37;;;;;;;;;;;21.90;64.20;;;;;;5028529;28;20316;-72
2022/07/31 01:02:02;;;;;;;;;;;21.80;64.20;;;;;;5041529;28;19973;-72
2022/07/31 01:04:28;;;;;;;;;;;21.80;64.20;;;;;;5024100;28;19992;-72
2022/07/31 01:06:53;;;;;;;;;;;21.80;64.30;;;;;;5033459;28;19962;-72
2022/07/31 01:09:19;;;;;;;;;;;21.70;64.20;;;;;;5032816;28;20307;-72
2022/07/31 01:11:47;;;;;;;;;;;21.70;64.30;;;;;;5029485;28;19917;-72
2022/07/31 01:14:14;;;;;;;;;;;21.70;64.20;;;;;;5020302;28;19920;-72
2022/07/31 01:16:41;;;;;;;;;;;21.70;64.40;;;;;;5027589;28;19917;-72
2022/07/31 01:19:14;;;;;;;;;;;21.70;64.50;;;;;;5041104;28;19920;-72
2022/07/31 01:21:42;;;;;;;;;;;21.60;64.40;;;;;;5033559;28;19912;-72
2022/07/31 01:24:07;;;;;;;;;;;21.60;64.50;;;;;;5042199;28;19967;-72
2022/07/31 01:26:53;;;;;;;;;;;21.60;64.60;;;;;;5034169;28;20405;-72
2022/07/31 01:29:31;;;;;;;;;;;21.50;64.60;;;;;;5027978;28;19924;-72
2022/07/31 01:32:02;;;;;;;;;;;21.50;64.50;;;;;;5018335;28;19963;-72
2022/07/31 01:34:34;;;;;;;;;;;21.50;64.60;;;;;;5026258;28;19913;-72
2022/07/31 01:37:05;;;;;;;;;;;21.50;64.70;;;;;;5023461;28;19949;-72
2022/07/31 01:39:32;;;;;;;;;;;21.40;64.60;;;;;;5032272;28;19978;-72
2022/07/31 01:42:00;;;;;;;;;;;21.40;64.80;;;;;;5026917;28;19913;-72
2022/07/31 01:44:26;;;;;;;;;;;21.40;65.50;;;;;;5023385;28;19917;-72
2022/07/31 01:46:52;;;;;;;;;;;21.40;64.90;;;;;;5031405;28;19917;-72
2022/07/31 01:49:20;;;;;;;;;;;21.40;64.80;;;;;;5041967;28;19962;-71
2022/07/31 01:51:46;;;;;;;;;;;21.30;64.90;;;;;;5056732;27;20779;-71
2022/07/31 01:54:13;;;;;;;;;;;21.30;65.00;;;;;;5032649;28;19924;-71
2022/07/31 01:56:39;;;;;;;;;;;21.30;64.90;;;;;;5031609;28;19913;-71
2022/07/31 01:59:04;;;;;;;;;;;21.30;65.00;;;;;;5035317;28;19913;-72
2022/07/31 02:01:31;;;;;;;;;;;21.30;65.00;;;;;;5028675;28;19923;-72
2022/07/31 02:03:57;;;;;;;;;;;21.20;65.10;;;;;;5035360;28;19962;-72
2022/07/31 02:06:23;;;;;;;;;;;21.20;65.10;;;;;;5036611;28;19935;-72
2022/07/31 02:08:50;;;;;;;;;;;21.20;65.10;;;;;;5023133;28;19913;-72
2022/07/31 02:11:17;;;;;;;;;;;21.20;65.10;;;;;;5023408;28;19913;-72
2022/07/31 02:13:44;;;;;;;;;;;21.20;65.30;;;;;;5021266;28;20620;-72
2022/07/31 02:16:10;;;;;;;;;;;21.10;65.30;;;;;;5002681;28;19916;-72
2022/07/31 02:18:36;;;;;;;;;;;21.10;65.40;;;;;;5019733;28;19917;-72
2022/07/31 02:21:01;;;;;;;;;;;21.10;65.30;;;;;;5009628;28;19920;-72
2022/07/31 02:23:27;;;;;;;;;;;21.10;65.40;;;;;;5039785;28;19917;-72
2022/07/31 02:25:53;;;;;;;;;;;21.10;65.40;;;;;;5037563;28;19920;-72
2022/07/31 02:28:19;;;;;;;;;;;21.10;65.40;;;;;;5021664;28;19920;-72
2022/07/31 02:30:45;;;;;;;;;;;21.10;65.50;;;;;;5021375;28;19917;-72
2022/07/31 02:33:13;;;;;;;;;;;21.10;65.50;;;;;;5003336;28;19960;-72
2022/07/31 02:35:39;;;;;;;;;;;21.00;65.50;;;;;;5021319;28;19963;-72
2022/07/31 02:38:06;;;;;;;;;;;21.00;65.50;;;;;;5020970;28;19917;-72
2022/07/31 02:40:32;;;;;;;;;;;21.00;65.60;;;;;;5027440;28;19959;-72
2022/07/31 02:42:57;;;;;;;;;;;21.00;65.60;;;;;;5028504;28;19956;-72
2022/07/31 02:45:23;;;;;;;;;;;21.00;65.90;;;;;;5031023;28;19916;-72
2022/07/31 02:47:49;;;;;;;;;;;20.90;65.70;;;;;;5026808;28;20520;-72
2022/07/31 02:50:15;;;;;;;;;;;20.90;65.80;;;;;;5024827;28;19913;-72
2022/07/31 02:52:42;;;;;;;;;;;20.90;65.70;;;;;;5030780;28;19920;-72
2022/07/31 02:55:08;;;;;;;;;;;20.90;65.80;;;;;;5035775;28;19917;-72
2022/07/31 02:57:33;;;;;;;;;;;20.90;65.80;;;;;;5040556;28;19982;-72
2022/07/31 02:59:58;;;;;;;;;;;20.90;66.00;;;;;;5037483;28;20345;-72
2022/07/31 03:02:24;;;;;;;;;;;20.90;65.90;;;;;;5022306;28;19924;-71
2022/07/31 03:04:50;;;;;;;;;;;20.90;65.90;;;;;;5024947;28;19919;-71
2022/07/31 03:07:16;;;;;;;;;;;20.80;65.90;;;;;;5038157;28;20693;-71
2022/07/31 03:09:42;;;;;;;;;;;20.80;66.00;;;;;;5030766;28;19909;-71
2022/07/31 03:12:07;;;;;;;;;;;20.80;66.10;;;;;;5004964;28;20381;-71
2022/07/31 03:14:34;;;;;;;;;;;20.80;66.00;;;;;;5019419;28;19920;-71
2022/07/31 03:17:00;;;;;;;;;;;20.70;66.10;;;;;;5030839;28;19917;-71
2022/07/31 03:19:26;;;;;;;;;;;20.70;66.00;;;;;;5039383;28;19919;-71
2022/07/31 03:21:51;;;;;;;;;;;20.70;66.00;;;;;;5038622;28;19913;-71
2022/07/31 03:24:17;;;;;;;;;;;20.70;66.00;;;;;;5025915;28;19913;-71
2022/07/31 03:26:43;;;;;;;;;;;20.70;66.20;;;;;;5011517;28;19919;-71
2022/07/31 03:29:08;;;;;;;;;;;20.70;66.20;;;;;;5027737;28;19966;-71
2022/07/31 03:31:34;;;;;;;;;;;20.70;66.20;;;;;;5024157;28;19909;-71
2022/07/31 03:33:59;;;;;;;;;;;20.70;66.30;;;;;;5032042;28;19915;-71
2022/07/31 03:36:26;;;;;;;;;;;20.70;66.40;;;;;;5031707;28;19921;-72
2022/07/31 03:38:51;;;;;;;;;;;20.70;66.30;;;;;;5027729;28;19940;-72
2022/07/31 03:41:17;;;;;;;;;;;20.70;66.30;;;;;;5027464;28;20444;-71
2022/07/31 03:43:43;;;;;;;;;;;20.60;66.40;;;;;;5025575;28;19920;-72
2022/07/31 03:46:08;;;;;;;;;;;20.60;66.40;;;;;;5031607;28;19916;-72
2022/07/31 03:48:34;;;;;;;;;;;20.60;66.40;;;;;;5007344;28;20293;-72
2022/07/31 03:51:00;;;;;;;;;;;20.60;66.50;;;;;;5029702;28;19916;-72
2022/07/31 03:53:26;;;;;;;;;;;20.60;66.70;;;;;;5007086;28;20548;-72
2022/07/31 03:55:53;;;;;;;;;;;20.60;66.50;;;;;;5030711;28;19913;-71
2022/07/31 03:58:18;;;;;;;;;;;20.60;66.60;;;;;;5026069;28;19959;-71
2022/07/31 04:00:44;;;;;;;;;;;20.60;66.60;;;;;;5025201;28;19964;-72
2022/07/31 04:03:10;;;;;;;;;;;20.60;66.50;;;;;;5033535;28;19913;-72
2022/07/31 04:05:36;;;;;;;;;;;20.60;66.60;;;;;;5033982;28;19912;-72
2022/07/31 04:08:02;;;;;;;;;;;20.60;66.50;;;;;;5043004;28;19915;-72
2022/07/31 04:10:27;;;;;;;;;;;20.60;66.60;;;;;;5035071;28;19917;-72
2022/07/31 04:12:53;;;;;;;;;;;20.60;66.50;;;;;;5006745;28;19952;-72
2022/07/31 04:15:18;;;;;;;;;;;20.60;66.60;;;;;;5028495;28;19913;-72
2022/07/31 04:17:44;;;;;;;;;;;20.60;66.70;;;;;;5018525;28;20016;-72
2022/07/31 04:20:12;;;;;;;;;;;20.60;66.60;;;;;;5043170;28;19909;-72
2022/07/31 04:22:38;;;;;;;;;;;20.60;66.60;;;;;;5010205;28;19921;-72
2022/07/31 04:25:04;;;;;;;;;;;20.60;66.50;;;;;;5042391;28;20015;-72
2022/07/31 04:27:30;;;;;;;;;;;20.60;66.50;;;;;;5034645;28;20023;-72
2022/07/31 04:29:56;;;;;;;;;;;20.60;66.80;;;;;;5040773;28;20092;-72
2022/07/31 04:32:22;;;;;;;;;;;20.60;66.50;;;;;;5013630;28;19952;-72
2022/07/31 04:34:48;;;;;;;;;;;20.60;66.50;;;;;;5042908;28;19922;-72
2022/07/31 04:37:14;;;;;;;;;;;20.60;66.60;;;;;;5035834;28;19917;-72
2022/07/31 04:39:39;;;;;;;;;;;20.60;66.70;;;;;;5031675;28;19940;-72
2022/07/31 04:42:05;;;;;;;;;;;20.60;66.60;;;;;;5041259;28;19917;-72
2022/07/31 04:44:30;;;;;;;;;;;20.60;66.50;;;;;;5006944;28;20012;-72
2022/07/31 04:47:00;;;;;;;;;;;20.60;66.60;;;;;;5035158;28;19940;-72
2022/07/31 04:49:25;;;;;;;;;;;20.60;66.60;;;;;;5030967;28;19924;-72
2022/07/31 04:51:51;;;;;;;;;;;20.60;66.50;;;;;;5043115;28;20008;-72
2022/07/31 04:54:17;;;;;;;;;;;20.60;66.60;;;;;;5036265;28;20645;-72
2022/07/31 04:56:43;;;;;;;;;;;20.60;66.60;;;;;;5006690;28;19917;-72
2022/07/31 04:59:10;;;;;;;;;;;20.60;66.50;;;;;;5024690;28;19909;-72
2022/07/31 05:01:36;;;;;;;;;;;20.60;66.50;;;;;;5036465;28;20757;-72
2022/07/31 05:04:01;;;;;;;;;;;20.70;66.50;;;;;;5025556;28;19913;-72
2022/07/31 05:06:37;;;;;;;;;;;20.60;66.50;;;;;;5028763;28;19921;-72
2022/07/31 05:09:04;;;;;;;;;;;20.70;66.50;;;;;;5007309;28;19909;-72
2022/07/31 05:11:29;;;;;;;;;;;20.70;66.50;;;;;;5040687;28;20007;-72
2022/07/31 05:13:56;;;;;;;;;;;20.70;66.50;;;;;;5032849;28;20035;-72
2022/07/31 05:16:22;;;;;;;;;;;20.70;66.40;;;;;;5036871;28;19919;-72
2022/07/31 05:18:48;;;;;;;;;;;20.70;66.40;;;;;;5024908;28;19913;-71
2022/07/31 05:21:14;;;;;;;;;;;20.70;66.50;;;;;;5036807;28;19994;-71
2022/07/31 05:23:41;;;;;;;;;;;20.70;66.40;;;;;;5012155;28;19971;-71
2022/07/31 05:26:06;;;;;;;;;;;20.70;66.50;;;;;;5034215;28;20015;-71
2022/07/31 05:28:32;;;;;;;;;;;20.70;66.50;;;;;;5035854;28;20013;-71
2022/07/31 05:30:58;;;;;;;;;;;20.70;66.50;;;;;;5036669;28;20318;-72
2022/07/31 05:33:23;;;;;;;;;;;20.70;66.40;;;;;;5035693;28;20009;-72
2022/07/31 05:35:49;;;;;;;;;;;20.80;66.40;;;;;;5016324;28;19916;-72
2022/07/31 05:38:14;;;;;;;;;;;20.80;66.40;;;;;;5026472;28;19921;-72
2022/07/31 05:40:40;;;;;;;;;;;20.80;66.30;;;;;;5028667;28;19967;-72
2022/07/31 05:43:06;;;;;;;;;;;20.80;66.30;;;;;;5024143;28;19921;-72
2022/07/31 05:45:31;;;;;;;;;;;20.80;66.30;;;;;;5027342;28;19934;-72
2022/07/31 05:47:57;;;;;;;;;;;20.80;66.30;;;;;;5027646;28;19977;-72
2022/07/31 05:50:22;;;;;;;;;;;20.80;66.10;;;;;;5024974;28;19913;-72
2022/07/31 05:52:50;;;;;;;;;;;20.80;66.20;;;;;;5026806;28;20322;-72
2022/07/31 05:55:16;;;;;;;;;;;20.80;66.10;;;;;;5022819;28;20361;-72
2022/07/31 05:57:41;;;;;;;;;;;20.80;66.10;;;;;;5023789;28;19986;-72
2022/07/31 06:00:07;;;;;;;;;;;20.80;66.10;;;;;;5025451;28;20007;-72
2022/07/31 06:02:33;;;;;;;;;;;20.90;66.10;;;;;;5023961;28;20342;-72
2022/07/31 06:04:59;;;;;;;;;;;20.90;66.20;;;;;;5025036;28;19951;-72
2022/07/31 06:07:24;;;;;;;;;;;20.90;66.20;;;;;;5022976;28;19928;-72
2022/07/31 06:09:49;;;;;;;;;;;20.90;66.00;;;;;;5025634;28;19928;-72
2022/07/31 06:12:15;;;;;;;;;;;21.00;66.30;;;;;;5024512;28;19964;-72
2022/07/31 06:14:41;;;;;;;;;;;20.90;65.90;;;;;;5026621;28;19987;-72
2022/07/31 06:17:06;;;;;;;;;;;21.00;66.60;;;;;;5012043;28;19913;-72
2022/07/31 06:19:32;;;;;;;;;;;21.00;66.00;;;;;;5007429;28;19969;-72
2022/07/31 06:21:58;;;;;;;;;;;21.00;66.00;;;;;;5009869;28;19984;-72
2022/07/31 06:24:24;;;;;;;;;;;21.00;65.90;;;;;;5024454;28;19921;-72
2022/07/31 06:26:50;;;;;;;;;;;21.00;65.90;;;;;;5026069;28;19920;-73
2022/07/31 06:29:16;;;;;;;;;;;21.00;65.90;;;;;;5035791;28;20292;-73
2022/07/31 06:31:41;;;;;;;;;;;21.00;66.00;;;;;;5038400;28;19909;-73
2022/07/31 06:34:07;;;;;;;;;;;21.00;66.10;;;;;;5021714;28;19917;-72
2022/07/31 06:36:32;;;;;;;;;;;21.10;66.00;;;;;;5029458;28;19913;-72
2022/07/31 06:38:58;;;;;;;;;;;21.10;65.90;;;;;;5027558;28;19917;-72
2022/07/31 06:44:07;;;;;;;;;;;21.20;65.80;;;;;;5029156;28;20011;-72
2022/07/31 06:46:33;;;;;;;;;;;21.20;65.70;;;;;;5033914;28;20019;-72
2022/07/31 06:48:59;;;;;;;;;;;21.20;65.70;;;;;;5028530;28;19961;-72
2022/07/31 06:51:24;;;;;;;;;;;21.30;65.90;;;;;;5034615;28;19913;-72
2022/07/31 06:53:50;;;;;;;;;;;21.30;65.80;;;;;;5010367;28;19913;-72
2022/07/31 06:56:15;;;;;;;;;;;21.30;65.70;;;;;;5022946;28;19921;-72
2022/07/31 06:58:41;;;;;;;;;;;21.30;65.70;;;;;;5023453;28;20638;-72
2022/07/31 07:01:06;;;;;;;;;;;21.30;65.60;;;;;;5023451;28;19920;-72
2022/07/31 07:03:32;;;;;;;;;;;21.40;65.70;;;;;;5004751;28;19913;-72
2022/07/31 07:05:58;;;;;;;;;;;21.40;65.70;;;;;;5025077;28;19917;-72
2022/07/31 07:08:24;;;;;;;;;;;21.40;65.70;;;;;;5035377;28;19962;-72
2022/07/31 07:10:49;;;;;;;;;;;21.40;65.70;;;;;;5027989;28;19917;-72
2022/07/31 07:13:15;;;;;;;;;;;21.40;65.70;;;;;;5027223;28;19913;-72
2022/07/31 07:15:40;;;;;;;;;;;21.50;66.50;;;;;;5027804;28;19913;-72
2022/07/31 07:18:06;;;;;;;;;;;21.60;65.70;;;;;;5029207;28;19917;-72
2022/07/31 07:20:31;;;;;;;;;;;21.50;65.70;;;;;;5030373;28;20342;-72
2022/07/31 07:22:57;;;;;;;;;;;21.60;65.90;;;;;;5025342;28;19966;-72
2022/07/31 07:25:22;;;;;;;;;;;21.60;65.70;;;;;;5026141;28;19919;-72
2022/07/31 07:27:48;;;;;;;;;;;21.70;66.00;;;;;;5026814;28;19944;-72
2022/07/31 07:30:13;;;;;;;;;;;21.70;65.70;;;;;;5024973;28;19992;-72
2022/07/31 07:32:39;;;;;;;;;;;21.70;65.60;;;;;;5024449;28;19992;-71
2022/07/31 07:35:05;;;;;;;;;;;21.70;66.20;;;;;;5026933;28;19921;-72
2022/07/31 07:37:31;;;;;;;;;;;21.80;65.70;;;;;;5024763;28;19921;-72
2022/07/31 07:39:57;;;;;;;;;;;21.80;65.40;;;;;;5020988;28;19973;-72
2022/07/31 07:42:23;;;;;;;;;;;21.80;65.60;;;;;;5028797;28;19920;-72
2022/07/31 07:44:48;;;;;;;;;;;21.90;65.40;;;;;;5010932;28;19917;-72
2022/07/31 07:47:14;;;;;;;;;;;21.90;65.90;;;;;;5035454;28;19966;-72
2022/07/31 07:49:39;;;;;;;;;;;21.90;65.60;;;;;;5043969;28;20407;-72
2022/07/31 07:52:05;;;;;;;;;;;21.90;65.70;;;;;;5037535;28;19917;-72
2022/07/31 07:54:30;;;;;;;;;;;22.00;65.80;;;;;;5043688;28;19921;-72
2022/07/31 07:56:56;;;;;;;;;;;21.90;66.20;;;;;;5037993;28;19921;-72
2022/07/31 07:59:21;;;;;;;;;;;22.00;66.00;;;;;;5011483;28;19914;-72
2022/07/31 08:01:47;;;;;;;;;;;22.10;66.00;;;;;;5030615;28;20437;-72
2022/07/31 08:04:12;;;;;;;;;;;22.10;66.30;;;;;;5033094;28;20250;-72
2022/07/31 08:06:38;;;;;;;;;;;22.10;66.10;;;;;;5027321;28;19928;-72
2022/07/31 08:09:03;;;;;;;;;;;22.20;65.40;;;;;;5031010;28;19961;-72
2022/07/31 08:11:29;;;;;;;;;;;22.20;65.60;;;;;;5031951;28;19909;-72
2022/07/31 08:13:54;;;;;;;;;;;22.20;65.70;;;;;;5027090;28;20650;-72
2022/07/31 08:16:20;;;;;;;;;;;22.20;66.10;;;;;;5037559;28;20000;-72
2022/07/31 08:18:46;;;;;;;;;;;22.20;66.10;;;;;;5024790;28;19913;-72
2022/07/31 08:21:11;;;;;;;;;;;22.30;65.60;;;;;;5031718;28;19955;-72
2022/07/31 08:23:37;;;;;;;;;;;22.30;65.90;;;;;;5034228;28;20357;-72
2022/07/31 08:26:07;;;;;;;;;;;22.30;66.00;;;;;;5031792;28;20358;-72
2022/07/31 08:28:33;;;;;;;;;;;22.40;65.60;;;;;;5033818;28;20403;-72
2022/07/31 08:30:59;;;;;;;;;;;22.40;65.50;;;;;;5037672;28;19909;-72
2022/07/31 08:33:24;;;;;;;;;;;22.50;65.90;;;;;;5024443;28;19915;-72
2022/07/31 08:35:50;;;;;;;;;;;22.50;65.60;;;;;;5036640;28;19913;-72
2022/07/31 08:38:17;;;;;;;;;;;22.50;65.80;;;;;;5032005;28;19943;-72
2022/07/31 08:40:43;;;;;;;;;;;22.50;66.50;;;;;;5009153;28;19909;-72
2022/07/31 08:43:09;;;;;;;;;;;22.50;65.60;;;;;;5025477;28;19940;-72
2022/07/31 08:45:36;;;;;;;;;;;22.50;65.60;;;;;;5030620;28;19924;-72
2022/07/31 08:48:03;;;;;;;;;;;22.50;65.60;;;;;;5028855;28;19987;-72
2022/07/31 08:50:28;;;;;;;;;;;22.60;66.00;;;;;;5036289;28;20008;-72
2022/07/31 08:52:55;;;;;;;;;;;22.60;65.80;;;;;;5030278;28;20008;-72
2022/07/31 08:55:21;;;;;;;;;;;22.60;65.70;;;;;;5018428;28;19912;-72
2022/07/31 08:57:47;;;;;;;;;;;22.60;66.10;;;;;;5042341;28;19977;-72
2022/07/31 09:00:16;;;;;;;;;;;22.60;66.00;;;;;;5037375;28;19958;-72
2022/07/31 09:02:42;;;;;;;;;;;22.60;65.70;;;;;;5007560;28;19913;-72
2022/07/31 09:05:08;;;;;;;;;;;22.60;65.70;;;;;;5030959;28;19912;-72
2022/07/31 09:07:33;;;;;;;;;;;22.70;65.80;;;;;;5019043;28;19920;-72
2022/07/31 09:09:59;;;;;;;;;;;22.70;65.90;;;;;;5036279;28;20289;-72
2022/07/31 09:12:28;;;;;;;;;;;22.70;65.90;;;;;;5031041;28;20114;-73
2022/07/31 09:14:54;;;;;;;;;;;22.70;65.90;;;;;;5019079;28;20535;-73
2022/07/31 09:17:29;;;;;;;;;;;22.70;65.70;;;;;;5025605;28;19928;-72
2022/07/31 09:19:55;;;;;;;;;;;22.80;66.00;;;;;;5035987;28;19916;-72
2022/07/31 09:22:21;;;;;;;;;;;22.80;66.20;;;;;;5023924;28;20292;-72
2022/07/31 09:24:47;;;;;;;;;;;22.80;66.20;;;;;;5036523;28;19916;-72
2022/07/31 09:27:16;;;;;;;;;;;22.80;66.10;;;;;;5034216;28;19917;-72
2022/07/31 09:29:43;;;;;;;;;;;22.90;66.20;;;;;;5031249;28;19945;-72
2022/07/31 09:32:11;;;;;;;;;;;22.90;66.40;;;;;;5028191;28;19917;-72
2022/07/31 09:34:38;;;;;;;;;;;22.90;66.20;;;;;;5029381;28;19909;-72
2022/07/31 09:37:14;;;;;;;;;;;23.00;66.50;;;;;;5020116;28;19924;-72
2022/07/31 09:39:40;;;;;;;;;;;23.00;66.20;;;;;;5022867;28;20451;-72
2022/07/31 09:42:06;;;;;;;;;;;23.10;65.90;;;;;;5031796;28;19923;-71
2022/07/31 09:44:39;;;;;;;;;;;23.10;66.10;;;;;;5023442;28;19913;-72
2022/07/31 09:47:05;;;;;;;;;;;23.10;66.10;;;;;;5031157;28;20008;-72
2022/07/31 09:49:34;;;;;;;;;;;23.20;66.40;;;;;;5031965;28;20377;-73
2022/07/31 09:51:59;;;;;;;;;;;23.20;66.20;;;;;;5034436;28;19932;-72
2022/07/31 09:54:30;;;;;;;;;;;23.20;66.70;;;;;;5036091;28;20497;-73
2022/07/31 09:56:56;;;;;;;;;;;23.30;66.30;;;;;;5029694;28;19921;-73
2022/07/31 09:59:22;;;;;;;;;;;23.30;66.40;;;;;;5007574;28;19924;-72
2022/07/31 10:01:48;;;;;;;;;;;23.40;65.70;;;;;;5011042;28;20460;-72
2022/07/31 10:04:17;;;;;;;;;;;23.40;65.80;;;;;;5029856;28;19921;-72
2022/07/31 10:06:45;;;;;;;;;;;23.40;66.00;;;;;;5007642;28;20266;-73
2022/07/31 10:09:11;;;;;;;;;;;23.50;66.10;;;;;;5041718;28;19909;-73
2022/07/31 10:11:38;;;;;;;;;;;23.50;66.20;;;;;;5028959;28;19913;-73
2022/07/31 10:14:09;;;;;;;;;;;23.50;65.70;;;;;;5027462;28;19936;-73
2022/07/31 10:16:36;;;;;;;;;;;23.60;65.80;;;;;;5011871;28;19958;-73
2022/07/31 10:19:10;;;;;;;;;;;23.60;66.80;;;;;;5030694;28;20007;-73
2022/07/31 10:21:43;;;;;;;;;;;23.60;66.00;;;;;;5031391;28;20393;-72
2022/07/31 10:24:09;;;;;;;;;;;23.60;65.90;;;;;;5020183;28;19921;-72
2022/07/31 10:26:34;;;;;;;;;;;23.70;65.60;;;;;;5034050;28;20540;-72
2022/07/31 10:29:00;;;;;;;;;;;23.70;65.60;;;;;;5031860;28;19909;-72
2022/07/31 10:31:26;;;;;;;;;;;23.70;65.60;;;;;;5036100;28;20316;-72
2022/07/31 10:33:54;;;;;;;;;;;23.80;65.60;;;;;;5035572;28;19913;-72
2022/07/31 10:36:32;;;;;;;;;;;23.80;65.30;;;;;;5033413;28;19936;-72
2022/07/31 10:39:01;;;;;;;;;;;23.80;65.30;;;;;;5027744;28;19924;-72
2022/07/31 10:41:31;;;;;;;;;;;23.80;65.30;;;;;;5031894;28;19917;-73
2022/07/31 10:44:02;;;;;;;;;;;23.90;65.70;;;;;;5024201;28;19913;-73
2022/07/31 10:46:31;;;;;;;;;;;23.90;65.50;;;;;;5034494;28;19921;-73
2022/07/31 10:48:57;;;;;;;;;;;24.00;65.30;;;;;;5009834;28;20298;-72
2022/07/31 10:51:23;;;;;;;;;;;24.10;65.30;;;;;;5032135;28;19913;-72
2022/07/31 10:53:53;;;;;;;;;;;24.10;65.90;;;;;;5016370;28;19985;-72
2022/07/31 10:56:18;;;;;;;;;;;24.10;65.70;;;;;;5029298;28;19917;-72
2022/07/31 10:58:51;;;;;;;;;;;24.20;65.00;;;;;;5037988;28;19927;-72
2022/07/31 11:01:17;;;;;;;;;;;24.20;65.40;;;;;;5017625;28;19917;-72
2022/07/31 11:03:46;;;;;;;;;;;24.20;65.00;;;;;;5029616;28;19962;-72
2022/07/31 11:06:15;;;;;;;;;;;24.20;65.10;;;;;;5022176;28;20527;-72
2022/07/31 11:08:41;;;;;;;;;;;24.20;65.10;;;;;;5029816;28;19981;-72
2022/07/31 11:11:06;;;;;;;;;;;24.30;65.20;;;;;;5029780;28;19913;-72
2022/07/31 11:13:32;;;;;;;;;;;24.40;65.20;;;;;;5035003;28;20013;-73
2022/07/31 11:16:04;;;;;;;;;;;24.50;65.10;;;;;;5039867;28;19921;-72
2022/07/31 11:18:30;;;;;;;;;;;24.60;64.90;;;;;;5011069;28;19921;-72
2022/07/31 11:20:59;;;;;;;;;;;24.70;64.80;;;;;;5024317;28;19925;-73
2022/07/31 11:23:28;;;;;;;;;;;24.70;64.30;;;;;;5026881;28;19913;-73
2022/07/31 11:25:57;;;;;;;;;;;24.70;64.40;;;;;;5027439;28;19913;-73
2022/07/31 11:28:23;;;;;;;;;;;24.70;64.80;;;;;;5013228;28;20403;-72
2022/07/31 11:30:53;;;;;;;;;;;24.80;64.60;;;;;;5024175;28;19913;-72
2022/07/31 11:33:40;;;;;;;;;;;24.80;64.40;;;;;;5028668;28;19913;-72
2022/07/31 11:36:07;;;;;;;;;;;24.80;64.50;;;;;;5026317;28;20020;-73
2022/07/31 11:38:33;;;;;;;;;;;24.80;64.60;;;;;;5025539;28;19973;-73
2022/07/31 11:40:58;;;;;;;;;;;24.70;64.60;;;;;;5014116;28;20283;-73
2022/07/31 11:43:24;;;;;;;;;;;24.80;64.60;;;;;;5027517;28;19917;-73
2022/07/31 11:45:51;;;;;;;;;;;24.80;64.60;;;;;;5026099;28;20269;-73
2022/07/31 11:48:17;;;;;;;;;;;24.80;64.70;;;;;;5025652;28;19925;-73
2022/07/31 11:50:43;;;;;;;;;;;24.90;64.80;;;;;;5023516;28;19913;-73
2022/07/31 11:53:09;;;;;;;;;;;24.90;64.80;;;;;;5009760;28;19913;-73
2022/07/31 11:55:47;;;;;;;;;;;24.90;64.70;;;;;;5029491;28;19987;-72
2022/07/31 11:58:14;;;;;;;;;;;24.90;64.80;;;;;;5032066;28;19962;-73
2022/07/31 12:00:44;;;;;;;;;;;24.90;64.80;;;;;;5028555;28;19920;-72
2022/07/31 12:03:10;;;;;;;;;;;24.90;64.90;;;;;;5032422;28;20641;-73
2022/07/31 12:05:43;;;;;;;;;;;24.90;64.70;;;;;;5016199;28;19945;-73
2022/07/31 12:08:09;;;;;;;;;;;24.90;65.20;;;;;;5034593;28;19909;-73
2022/07/31 12:10:35;;;;;;;;;;;24.90;65.20;;;;;;5028941;28;20352;-72
2022/07/31 12:13:01;;;;;;;;;;;24.90;65.10;;;;;;5016081;28;19924;-72
2022/07/31 12:15:26;;;;;;;;;;;24.90;65.20;;;;;;5032785;28;19923;-72
2022/07/31 12:17:59;;;;;;;;;;;24.80;65.20;;;;;;5032573;28;19961;-72
2022/07/31 12:20:24;;;;;;;;;;;24.80;65.20;;;;;;5030563;28;20008;-72
2022/07/31 12:22:59;;;;;;;;;;;24.80;65.40;;;;;;5034233;28;20000;-73
2022/07/31 12:25:25;;;;;;;;;;;24.80;65.30;;;;;;5012467;28;19917;-78
2022/07/31 12:27:51;;;;;;;;;;;24.80;65.30;;;;;;5038542;28;19925;-75
2022/07/31 12:30:17;;;;;;;;;;;24.80;65.70;;;;;;5027334;28;19914;-78
2022/07/31 12:32:43;;;;;;;;;;;24.80;66.10;;;;;;5007817;28;19920;-77
2022/07/31 12:35:08;;;;;;;;;;;24.80;66.40;;;;;;5010408;28;19909;-80
2022/07/31 12:37:45;;;;;;;;;;;24.90;66.70;;;;;;5029560;28;19913;-80
2022/07/31 12:40:20;;;;;;;;;;;25.00;66.70;;;;;;5031182;28;19927;-76
2022/07/31 12:42:46;;;;;;;;;;;25.10;66.60;;;;;;5016579;28;19912;-76
2022/07/31 12:45:11;;;;;;;;;;;25.20;66.70;;;;;;5019723;28;20464;-78
2022/07/31 12:47:37;;;;;;;;;;;25.30;66.80;;;;;;5020714;28;19920;-78
2022/07/31 12:50:03;;;;;;;;;;;25.40;66.80;;;;;;5042937;28;19916;-76
2022/07/31 12:52:33;;;;;;;;;;;25.40;66.70;;;;;;5016184;28;20502;-82
2022/07/31 12:55:03;;;;;;;;;;;25.50;66.70;;;;;;5027881;28;19909;-84
2022/07/31 12:57:28;;;;;;;;;;;25.40;66.60;;;;;;5031908;28;19999;-77
2022/07/31 12:59:54;;;;;;;;;;;25.50;66.70;;;;;;5037221;28;20000;-79
2022/07/31 13:02:20;;;;;;;;;;;25.60;66.50;;;;;;5034311;28;19923;-78
2022/07/31 13:04:45;;;;;;;;;;;25.60;66.60;;;;;;5013842;28;19917;-82
2022/07/31 13:07:11;;;;;;;;;;;25.60;66.40;;;;;;5010351;28;19913;-79
2022/07/31 13:09:36;;;;;;;;;;;25.70;66.60;;;;;;5012120;28;19913;-79
2022/07/31 13:12:02;;;;;;;;;;;25.70;66.60;;;;;;5036618;28;20007;-76
2022/07/31 13:14:28;;;;;;;;;;;25.70;66.60;;;;;;5020602;28;19915;-80
2022/07/31 13:16:54;;;;;;;;;;;25.70;66.60;;;;;;5038018;28;19917;-79
2022/07/31 13:19:20;;;;;;;;;;;25.70;66.70;;;;;;5035163;28;19913;-79
2022/07/31 13:21:45;;;;;;;;;;;25.70;66.80;;;;;;5024176;28;20603;-72
2022/07/31 13:24:12;;;;;;;;;;;25.70;66.80;;;;;;5006192;28;19913;-73
2022/07/31 13:26:38;;;;;;;;;;;25.60;66.80;;;;;;5023458;28;19956;-74
2022/07/31 13:29:04;;;;;;;;;;;25.60;66.90;;;;;;5025318;28;20510;-74
2022/07/31 13:31:30;;;;;;;;;;;25.50;66.60;;;;;;5039023;28;19909;-81
2022/07/31 13:33:56;;;;;;;;;;;25.60;66.60;;;;;;5038870;28;19978;-76
2022/07/31 13:36:22;;;;;;;;;;;25.60;66.40;;;;;;5010987;28;19916;-76
2022/07/31 13:38:47;;;;;;;;;;;25.60;66.70;;;;;;5013482;28;20495;-74
2022/07/31 13:41:27;;;;;;;;;;;25.70;66.40;;;;;;5026341;28;19913;-75
2022/07/31 13:43:53;;;;;;;;;;;25.70;66.60;;;;;;5012699;28;19919;-79
2022/07/31 13:46:19;;;;;;;;;;;25.70;66.50;;;;;;5029872;28;19974;-75
2022/07/31 13:48:44;;;;;;;;;;;25.60;66.40;;;;;;5029009;28;19913;-73
2022/07/31 13:51:10;;;;;;;;;;;25.70;66.60;;;;;;5031613;28;19940;-72
2022/07/31 13:53:35;;;;;;;;;;;25.70;67.10;;;;;;5012026;28;19926;-74
2022/07/31 13:56:01;;;;;;;;;;;25.80;66.30;;;;;;5028048;28;19914;-75
2022/07/31 13:58:27;;;;;;;;;;;25.80;66.40;;;;;;5029895;28;20019;-75
2022/07/31 14:00:56;;;;;;;;;;;25.80;66.30;;;;;;5043813;28;19913;-80
2022/07/31 14:03:22;;;;;;;;;;;25.80;66.40;;;;;;5033770;28;20599;-81
2022/07/31 14:05:47;;;;;;;;;;;25.80;66.50;;;;;;5024979;28;19919;-78
2022/07/31 14:08:13;;;;;;;;;;;25.80;66.50;;;;;;5005915;28;19913;-81
2022/07/31 14:10:38;;;;;;;;;;;25.80;66.40;;;;;;5005560;28;19920;-78
2022/07/31 14:13:04;;;;;;;;;;;25.90;66.60;;;;;;5023281;28;19963;-81
2022/07/31 14:15:29;;;;;;;;;;;25.90;66.60;;;;;;5037280;28;19912;-76